sensor_id;sensor_type;location;lat;lon;timestamp;P1;durP1;ratioP1;P2;durP2;ratioP2
5630;SDS011;2837;50.990;7.124;2023-08-21T05:01:10;151.90;;;10.70;;
5630;SDS011;2837;50.990;7.124;2023-08-21T05:03:37;147.90;;;10.13;;
5630;SDS011;2837;50.990;7.124;2023-08-21T05:06:02;148.50;;;10.13;;
5630;SDS011;2837;50.990;7.124;2023-08-21T05:08:28;147.77;;;10.30;;
5630;SDS011;2837;50.990;7.124;2023-08-21T05:10:55;151.47;;;10.70;;
5630;SDS011;2837;50.990;7.124;2023-08-21T05:13:21;146.37;;;9.43;;
5630;SDS011;2837;50.990;7.124;2023-08-21T05:15:53;146.50;;;8.60;;
5630;SDS011;2837;50.990;7.124;2023-08-21T05:18:23;149.07;;;9.40;;
5630;SDS011;2837;50.990;7.124;2023-08-21T05:20:49;149.10;;;10.33;;
5630;SDS011;2837;50.990;7.124;2023-08-21T05:23:17;147.43;;;9.50;;
5630;SDS011;2837;50.990;7.124;2023-08-21T05:25:43;149.43;;;10.07;;
5630;SDS011;2837;50.990;7.124;2023-08-21T05:28:09;147.33;;;10.00;;
5630;SDS011;2837;50.990;7.124;2023-08-21T05:30:35;147.33;;;10.10;;
5630;SDS011;2837;50.990;7.124;2023-08-21T05:33:01;148.20;;;9.57;;
5630;SDS011;2837;50.990;7.124;2023-08-21T05:35:28;152.10;;;10.40;;
5630;SDS011;2837;50.990;7.124;2023-08-21T05:37:54;146.70;;;9.63;;
5630;SDS011;2837;50.990;7.124;2023-08-21T05:40:20;155.87;;;10.13;;
5630;SDS011;2837;50.990;7.124;2023-08-21T05:42:46;148.37;;;10.40;;
5630;SDS011;2837;50.990;7.124;2023-08-21T05:45:11;147.23;;;10.07;;
5630;SDS011;2837;50.990;7.124;2023-08-21T05:47:37;147.87;;;10.10;;
5630;SDS011;2837;50.990;7.124;2023-08-21T05:50:03;149.10;;;10.50;;
5630;SDS011;2837;50.990;7.124;2023-08-21T05:52:29;148.30;;;9.40;;
5630;SDS011;2837;50.990;7.124;2023-08-21T05:54:55;146.37;;;9.40;;
5630;SDS011;2837;50.990;7.124;2023-08-21T05:57:21;148.73;;;9.97;;
5630;SDS011;2837;50.990;7.124;2023-08-21T05:59:46;146.73;;;10.20;;
5630;SDS011;2837;50.990;7.124;2023-08-21T06:02:13;148.47;;;9.57;;
5630;SDS011;2837;50.990;7.124;2023-08-21T06:04:39;149.17;;;10.60;;
5630;SDS011;2837;50.990;7.124;2023-08-21T06:07:06;146.17;;;10.10;;
5630;SDS011;2837;50.990;7.124;2023-08-21T06:09:31;146.97;;;10.47;;
5630;SDS011;2837;50.990;7.124;2023-08-21T06:11:59;151.00;;;10.60;;
5630;SDS011;2837;50.990;7.124;2023-08-21T06:14:26;159.77;;;10.37;;
5630;SDS011;2837;50.990;7.124;2023-08-21T06:17:04;148.77;;;11.00;;
5630;SDS011;2837;50.990;7.124;2023-08-21T06:19:33;149.67;;;11.17;;
5630;SDS011;2837;50.990;7.124;2023-08-21T06:21:59;148.00;;;10.73;;
5630;SDS011;2837;50.990;7.124;2023-08-21T06:24:24;149.47;;;11.80;;
5630;SDS011;2837;50.990;7.124;2023-08-21T06:26:51;148.70;;;11.50;;
5630;SDS011;2837;50.990;7.124;2023-08-21T06:29:18;149.77;;;10.80;;
5630;SDS011;2837;50.990;7.124;2023-08-21T06:31:45;148.10;;;11.20;;
5630;SDS011;2837;50.990;7.124;2023-08-21T06:34:11;150.37;;;10.23;;
5630;SDS011;2837;50.990;7.124;2023-08-21T06:36:37;148.50;;;11.37;;
5630;SDS011;2837;50.990;7.124;2023-08-21T06:39:03;149.37;;;11.33;;
5630;SDS011;2837;50.990;7.124;2023-08-21T06:41:28;148.77;;;10.60;;
5630;SDS011;2837;50.990;7.124;2023-08-21T06:43:54;151.70;;;10.37;;
5630;SDS011;2837;50.990;7.124;2023-08-21T06:46:20;148.47;;;11.13;;
5630;SDS011;2837;50.990;7.124;2023-08-21T06:48:46;146.77;;;10.33;;
5630;SDS011;2837;50.990;7.124;2023-08-21T06:51:12;149.83;;;11.67;;
5630;SDS011;2837;50.990;7.124;2023-08-21T06:53:37;148.37;;;10.30;;
5630;SDS011;2837;50.990;7.124;2023-08-21T06:56:03;153.07;;;11.20;;
5630;SDS011;2837;50.990;7.124;2023-08-21T06:58:29;148.17;;;11.17;;
5630;SDS011;2837;50.990;7.124;2023-08-21T07:00:55;150.10;;;11.83;;
5630;SDS011;2837;50.990;7.124;2023-08-21T07:03:21;148.57;;;11.60;;
5630;SDS011;2837;50.990;7.124;2023-08-21T07:05:56;160.70;;;12.83;;
5630;SDS011;2837;50.990;7.124;2023-08-21T07:08:23;149.60;;;12.77;;
5630;SDS011;2837;50.990;7.124;2023-08-21T07:10:49;148.27;;;11.70;;
5630;SDS011;2837;50.990;7.124;2023-08-21T07:13:15;153.67;;;11.50;;
5630;SDS011;2837;50.990;7.124;2023-08-21T07:15:40;152.17;;;11.50;;
5630;SDS011;2837;50.990;7.124;2023-08-21T07:18:06;150.37;;;12.57;;
5630;SDS011;2837;50.990;7.124;2023-08-21T07:20:32;151.27;;;13.17;;
5630;SDS011;2837;50.990;7.124;2023-08-21T07:22:58;152.60;;;12.70;;
5630;SDS011;2837;50.990;7.124;2023-08-21T07:25:24;148.70;;;12.20;;
5630;SDS011;2837;50.990;7.124;2023-08-21T07:27:50;150.70;;;12.23;;
5630;SDS011;2837;50.990;7.124;2023-08-21T07:30:20;152.80;;;12.57;;
5630;SDS011;2837;50.990;7.124;2023-08-21T07:32:47;151.67;;;12.87;;
5630;SDS011;2837;50.990;7.124;2023-08-21T07:35:13;149.43;;;11.33;;
5630;SDS011;2837;50.990;7.124;2023-08-21T07:37:39;152.13;;;12.83;;
5630;SDS011;2837;50.990;7.124;2023-08-21T07:40:06;149.57;;;12.23;;
5630;SDS011;2837;50.990;7.124;2023-08-21T07:42:32;151.20;;;13.00;;
5630;SDS011;2837;50.990;7.124;2023-08-21T07:44:58;149.97;;;12.40;;
5630;SDS011;2837;50.990;7.124;2023-08-21T07:47:23;151.37;;;12.53;;
5630;SDS011;2837;50.990;7.124;2023-08-21T07:49:49;153.10;;;12.53;;
5630;SDS011;2837;50.990;7.124;2023-08-21T07:52:15;149.23;;;12.30;;
5630;SDS011;2837;50.990;7.124;2023-08-21T07:54:41;148.50;;;12.27;;
5630;SDS011;2837;50.990;7.124;2023-08-21T07:57:06;153.37;;;13.03;;
5630;SDS011;2837;50.990;7.124;2023-08-21T07:59:32;158.67;;;13.00;;
5630;SDS011;2837;50.990;7.124;2023-08-21T08:01:58;152.90;;;12.40;;
5630;SDS011;2837;50.990;7.124;2023-08-21T08:04:25;150.87;;;12.73;;
5630;SDS011;2837;50.990;7.124;2023-08-21T08:06:51;157.03;;;14.63;;
5630;SDS011;2837;50.990;7.124;2023-08-21T08:09:16;153.03;;;14.03;;
5630;SDS011;2837;50.990;7.124;2023-08-21T08:11:42;154.37;;;14.40;;
5630;SDS011;2837;50.990;7.124;2023-08-21T08:14:08;150.23;;;13.10;;
5630;SDS011;2837;50.990;7.124;2023-08-21T08:16:33;151.30;;;14.03;;
5630;SDS011;2837;50.990;7.124;2023-08-21T08:18:59;148.37;;;11.93;;
5630;SDS011;2837;50.990;7.124;2023-08-21T08:21:24;152.20;;;12.67;;
5630;SDS011;2837;50.990;7.124;2023-08-21T08:23:50;152.20;;;14.83;;
5630;SDS011;2837;50.990;7.124;2023-08-21T08:26:16;152.10;;;14.47;;
5630;SDS011;2837;50.990;7.124;2023-08-21T08:28:42;151.77;;;13.13;;
5630;SDS011;2837;50.990;7.124;2023-08-21T08:31:14;150.87;;;12.50;;
5630;SDS011;2837;50.990;7.124;2023-08-21T08:33:43;156.37;;;15.20;;
5630;SDS011;2837;50.990;7.124;2023-08-21T08:36:09;154.57;;;14.97;;
5630;SDS011;2837;50.990;7.124;2023-08-21T08:38:34;170.73;;;15.27;;
5630;SDS011;2837;50.990;7.124;2023-08-21T08:41:01;152.47;;;14.13;;
5630;SDS011;2837;50.990;7.124;2023-08-21T08:43:29;154.40;;;15.27;;
5630;SDS011;2837;50.990;7.124;2023-08-21T08:45:56;151.37;;;13.90;;
5630;SDS011;2837;50.990;7.124;2023-08-21T08:48:23;159.03;;;16.77;;
5630;SDS011;2837;50.990;7.124;2023-08-21T08:50:50;152.33;;;15.67;;
5630;SDS011;2837;50.990;7.124;2023-08-21T08:53:17;155.00;;;15.40;;
5630;SDS011;2837;50.990;7.124;2023-08-21T08:55:44;152.20;;;13.40;;
5630;SDS011;2837;50.990;7.124;2023-08-21T08:58:10;152.87;;;15.03;;
5630;SDS011;2837;50.990;7.124;2023-08-21T09:00:36;149.90;;;12.93;;
5630;SDS011;2837;50.990;7.124;2023-08-21T09:03:02;152.23;;;15.27;;
5630;SDS011;2837;50.990;7.124;2023-08-21T09:05:28;152.97;;;15.90;;
5630;SDS011;2837;50.990;7.124;2023-08-21T09:08:09;161.17;;;17.63;;
5630;SDS011;2837;50.990;7.124;2023-08-21T09:10:36;151.47;;;13.63;;
5630;SDS011;2837;50.990;7.124;2023-08-21T09:13:11;151.90;;;14.63;;
5630;SDS011;2837;50.990;7.124;2023-08-21T09:15:45;154.07;;;15.57;;
5630;SDS011;2837;50.990;7.124;2023-08-21T09:18:12;155.40;;;15.53;;
5630;SDS011;2837;50.990;7.124;2023-08-21T09:20:40;154.17;;;15.67;;
5630;SDS011;2837;50.990;7.124;2023-08-21T09:23:06;152.30;;;15.07;;
5630;SDS011;2837;50.990;7.124;2023-08-21T09:25:33;153.50;;;14.20;;
5630;SDS011;2837;50.990;7.124;2023-08-21T09:28:03;151.70;;;15.40;;
5630;SDS011;2837;50.990;7.124;2023-08-21T09:30:32;153.80;;;14.67;;
5630;SDS011;2837;50.990;7.124;2023-08-21T09:33:12;158.67;;;16.97;;
5630;SDS011;2837;50.990;7.124;2023-08-21T09:35:38;154.37;;;14.97;;
5630;SDS011;2837;50.990;7.124;2023-08-21T09:38:07;153.33;;;13.17;;
5630;SDS011;2837;50.990;7.124;2023-08-21T09:40:33;150.87;;;13.63;;
5630;SDS011;2837;50.990;7.124;2023-08-21T09:42:59;148.77;;;12.80;;
5630;SDS011;2837;50.990;7.124;2023-08-21T09:45:25;148.67;;;12.77;;
5630;SDS011;2837;50.990;7.124;2023-08-21T09:47:53;151.87;;;12.70;;
5630;SDS011;2837;50.990;7.124;2023-08-21T09:50:19;148.10;;;12.43;;
5630;SDS011;2837;50.990;7.124;2023-08-21T09:52:45;153.60;;;13.30;;
5630;SDS011;2837;50.990;7.124;2023-08-21T09:55:14;151.13;;;13.47;;
5630;SDS011;2837;50.990;7.124;2023-08-21T09:57:40;154.07;;;12.87;;
5630;SDS011;2837;50.990;7.124;2023-08-21T10:00:06;150.13;;;12.67;;
5630;SDS011;2837;50.990;7.124;2023-08-21T10:02:46;153.13;;;12.40;;
5630;SDS011;2837;50.990;7.124;2023-08-21T10:05:18;153.10;;;13.07;;
5630;SDS011;2837;50.990;7.124;2023-08-21T10:07:48;149.20;;;11.83;;
5630;SDS011;2837;50.990;7.124;2023-08-21T10:10:15;152.77;;;12.83;;
5630;SDS011;2837;50.990;7.124;2023-08-21T10:12:42;151.57;;;13.53;;
5630;SDS011;2837;50.990;7.124;2023-08-21T10:15:07;149.33;;;13.20;;
5630;SDS011;2837;50.990;7.124;2023-08-21T10:17:34;149.67;;;11.90;;
5630;SDS011;2837;50.990;7.124;2023-08-21T10:20:07;148.00;;;11.83;;
5630;SDS011;2837;50.990;7.124;2023-08-21T10:22:44;151.60;;;12.40;;
5630;SDS011;2837;50.990;7.124;2023-08-21T10:25:15;149.57;;;12.73;;
5630;SDS011;2837;50.990;7.124;2023-08-21T10:27:42;147.37;;;12.17;;
5630;SDS011;2837;50.990;7.124;2023-08-21T10:30:14;153.60;;;12.47;;
5630;SDS011;2837;50.990;7.124;2023-08-21T10:32:45;152.57;;;13.07;;
5630;SDS011;2837;50.990;7.124;2023-08-21T10:35:17;151.43;;;13.00;;
5630;SDS011;2837;50.990;7.124;2023-08-21T10:40:36;155.17;;;15.63;;
5630;SDS011;2837;50.990;7.124;2023-08-21T10:43:02;154.40;;;15.50;;
5630;SDS011;2837;50.990;7.124;2023-08-21T10:45:28;155.80;;;16.67;;
5630;SDS011;2837;50.990;7.124;2023-08-21T10:47:58;151.57;;;14.53;;
5630;SDS011;2837;50.990;7.124;2023-08-21T10:50:24;150.37;;;13.27;;
5630;SDS011;2837;50.990;7.124;2023-08-21T10:52:51;162.30;;;13.27;;
5630;SDS011;2837;50.990;7.124;2023-08-21T10:55:17;150.30;;;11.80;;
5630;SDS011;2837;50.990;7.124;2023-08-21T10:57:45;146.43;;;10.50;;
5630;SDS011;2837;50.990;7.124;2023-08-21T11:00:13;149.17;;;12.93;;
5630;SDS011;2837;50.990;7.124;2023-08-21T11:02:42;150.20;;;13.37;;
5630;SDS011;2837;50.990;7.124;2023-08-21T11:05:09;148.50;;;11.90;;
5630;SDS011;2837;50.990;7.124;2023-08-21T11:10:09;152.07;;;13.00;;
5630;SDS011;2837;50.990;7.124;2023-08-21T11:12:36;148.77;;;11.70;;
5630;SDS011;2837;50.990;7.124;2023-08-21T11:15:02;151.70;;;13.70;;
5630;SDS011;2837;50.990;7.124;2023-08-21T11:17:29;149.60;;;13.73;;
5630;SDS011;2837;50.990;7.124;2023-08-21T11:19:55;151.97;;;14.27;;
5630;SDS011;2837;50.990;7.124;2023-08-21T11:22:21;149.63;;;13.37;;
5630;SDS011;2837;50.990;7.124;2023-08-21T11:24:53;151.17;;;14.17;;
5630;SDS011;2837;50.990;7.124;2023-08-21T11:27:19;151.27;;;13.73;;
5630;SDS011;2837;50.990;7.124;2023-08-21T11:29:47;153.53;;;15.37;;
5630;SDS011;2837;50.990;7.124;2023-08-21T11:32:15;157.87;;;14.90;;
5630;SDS011;2837;50.990;7.124;2023-08-21T11:34:47;151.90;;;14.20;;
5630;SDS011;2837;50.990;7.124;2023-08-21T11:37:13;152.67;;;13.80;;
5630;SDS011;2837;50.990;7.124;2023-08-21T11:39:43;148.67;;;12.10;;
5630;SDS011;2837;50.990;7.124;2023-08-21T11:42:11;152.80;;;15.40;;
5630;SDS011;2837;50.990;7.124;2023-08-21T11:44:44;151.43;;;13.97;;
5630;SDS011;2837;50.990;7.124;2023-08-21T11:47:12;150.97;;;14.03;;
5630;SDS011;2837;50.990;7.124;2023-08-21T11:49:42;152.00;;;14.87;;
5630;SDS011;2837;50.990;7.124;2023-08-21T11:52:11;149.27;;;13.57;;
5630;SDS011;2837;50.990;7.124;2023-08-21T11:54:38;153.83;;;13.40;;
5630;SDS011;2837;50.990;7.124;2023-08-21T11:57:12;149.97;;;12.93;;
5630;SDS011;2837;50.990;7.124;2023-08-21T11:59:39;148.80;;;12.10;;
5630;SDS011;2837;50.990;7.124;2023-08-21T12:02:16;148.60;;;10.80;;
5630;SDS011;2837;50.990;7.124;2023-08-21T12:04:43;150.87;;;12.73;;
5630;SDS011;2837;50.990;7.124;2023-08-21T12:07:09;150.37;;;13.37;;
5630;SDS011;2837;50.990;7.124;2023-08-21T12:09:35;148.37;;;12.27;;
5630;SDS011;2837;50.990;7.124;2023-08-21T12:12:01;151.83;;;13.83;;
5630;SDS011;2837;50.990;7.124;2023-08-21T12:14:28;149.67;;;13.90;;
5630;SDS011;2837;50.990;7.124;2023-08-21T12:16:54;151.47;;;12.30;;
5630;SDS011;2837;50.990;7.124;2023-08-21T12:19:21;149.30;;;12.60;;
5630;SDS011;2837;50.990;7.124;2023-08-21T12:21:48;149.50;;;11.13;;
5630;SDS011;2837;50.990;7.124;2023-08-21T12:24:14;147.50;;;10.77;;
5630;SDS011;2837;50.990;7.124;2023-08-21T12:26:39;148.90;;;12.40;;
5630;SDS011;2837;50.990;7.124;2023-08-21T12:29:05;147.47;;;11.10;;
5630;SDS011;2837;50.990;7.124;2023-08-21T12:31:31;149.10;;;10.77;;
5630;SDS011;2837;50.990;7.124;2023-08-21T12:33:57;145.90;;;10.23;;
5630;SDS011;2837;50.990;7.124;2023-08-21T12:36:23;145.07;;;9.67;;
5630;SDS011;2837;50.990;7.124;2023-08-21T12:38:49;143.57;;;9.30;;
5630;SDS011;2837;50.990;7.124;2023-08-21T12:41:15;146.57;;;10.50;;
5630;SDS011;2837;50.990;7.124;2023-08-21T12:43:41;145.97;;;10.20;;
5630;SDS011;2837;50.990;7.124;2023-08-21T12:46:07;143.37;;;8.83;;
5630;SDS011;2837;50.990;7.124;2023-08-21T12:48:33;144.67;;;9.60;;
5630;SDS011;2837;50.990;7.124;2023-08-21T12:50:59;147.83;;;10.30;;
5630;SDS011;2837;50.990;7.124;2023-08-21T12:53:24;146.07;;;10.97;;
5630;SDS011;2837;50.990;7.124;2023-08-21T12:55:50;151.67;;;10.97;;
5630;SDS011;2837;50.990;7.124;2023-08-21T12:58:15;146.33;;;10.50;;
5630;SDS011;2837;50.990;7.124;2023-08-21T13:00:43;146.07;;;10.37;;
5630;SDS011;2837;50.990;7.124;2023-08-21T13:03:08;146.37;;;10.17;;
5630;SDS011;2837;50.990;7.124;2023-08-21T13:05:34;144.90;;;10.03;;
5630;SDS011;2837;50.990;7.124;2023-08-21T13:08:00;148.87;;;10.10;;
5630;SDS011;2837;50.990;7.124;2023-08-21T13:10:26;145.87;;;10.70;;
5630;SDS011;2837;50.990;7.124;2023-08-21T13:12:52;144.83;;;9.60;;
5630;SDS011;2837;50.990;7.124;2023-08-21T13:15:18;145.17;;;10.60;;
5630;SDS011;2837;50.990;7.124;2023-08-21T13:17:44;146.70;;;11.20;;
5630;SDS011;2837;50.990;7.124;2023-08-21T13:20:10;144.87;;;9.67;;
5630;SDS011;2837;50.990;7.124;2023-08-21T13:22:49;143.27;;;9.63;;
5630;SDS011;2837;50.990;7.124;2023-08-21T13:25:20;147.03;;;10.20;;
5630;SDS011;2837;50.990;7.124;2023-08-21T13:27:47;144.87;;;9.13;;
5630;SDS011;2837;50.990;7.124;2023-08-21T13:30:13;145.97;;;10.40;;
5630;SDS011;2837;50.990;7.124;2023-08-21T13:32:39;145.97;;;10.17;;
5630;SDS011;2837;50.990;7.124;2023-08-21T13:35:05;146.07;;;10.63;;
5630;SDS011;2837;50.990;7.124;2023-08-21T13:37:33;147.63;;;10.50;;
5630;SDS011;2837;50.990;7.124;2023-08-21T13:39:59;143.30;;;9.20;;
5630;SDS011;2837;50.990;7.124;2023-08-21T13:42:26;142.77;;;9.27;;
5630;SDS011;2837;50.990;7.124;2023-08-21T13:44:55;145.23;;;9.47;;
5630;SDS011;2837;50.990;7.124;2023-08-21T13:47:24;142.70;;;9.07;;
5630;SDS011;2837;50.990;7.124;2023-08-21T13:49:50;142.57;;;8.77;;
5630;SDS011;2837;50.990;7.124;2023-08-21T13:52:16;144.17;;;9.20;;
5630;SDS011;2837;50.990;7.124;2023-08-21T13:54:42;144.17;;;8.80;;
5630;SDS011;2837;50.990;7.124;2023-08-21T13:57:07;144.17;;;9.40;;
5630;SDS011;2837;50.990;7.124;2023-08-21T13:59:33;143.33;;;9.80;;
5630;SDS011;2837;50.990;7.124;2023-08-21T14:01:59;142.67;;;8.60;;
5630;SDS011;2837;50.990;7.124;2023-08-21T14:04:24;144.60;;;10.10;;
5630;SDS011;2837;50.990;7.124;2023-08-21T14:06:50;148.33;;;9.70;;
5630;SDS011;2837;50.990;7.124;2023-08-21T14:09:16;143.07;;;9.00;;
5630;SDS011;2837;50.990;7.124;2023-08-21T14:11:43;146.97;;;8.40;;
5630;SDS011;2837;50.990;7.124;2023-08-21T14:14:09;143.73;;;8.33;;
5630;SDS011;2837;50.990;7.124;2023-08-21T14:16:35;144.87;;;9.10;;
5630;SDS011;2837;50.990;7.124;2023-08-21T14:19:01;144.80;;;8.50;;
5630;SDS011;2837;50.990;7.124;2023-08-21T14:21:28;144.80;;;9.03;;
5630;SDS011;2837;50.990;7.124;2023-08-21T14:23:53;146.03;;;8.70;;
5630;SDS011;2837;50.990;7.124;2023-08-21T14:26:19;142.63;;;9.10;;
5630;SDS011;2837;50.990;7.124;2023-08-21T14:28:45;142.53;;;9.00;;
5630;SDS011;2837;50.990;7.124;2023-08-21T14:31:15;144.27;;;8.60;;
5630;SDS011;2837;50.990;7.124;2023-08-21T14:33:41;143.07;;;8.90;;
5630;SDS011;2837;50.990;7.124;2023-08-21T14:36:07;144.63;;;9.23;;
5630;SDS011;2837;50.990;7.124;2023-08-21T14:38:33;142.33;;;8.77;;
5630;SDS011;2837;50.990;7.124;2023-08-21T14:41:00;143.23;;;8.23;;
5630;SDS011;2837;50.990;7.124;2023-08-21T14:43:26;146.17;;;9.03;;
5630;SDS011;2837;50.990;7.124;2023-08-21T14:45:53;146.70;;;9.50;;
5630;SDS011;2837;50.990;7.124;2023-08-21T14:48:19;144.37;;;8.40;;
5630;SDS011;2837;50.990;7.124;2023-08-21T14:50:45;143.33;;;9.23;;
5630;SDS011;2837;50.990;7.124;2023-08-21T14:53:11;141.67;;;7.90;;
5630;SDS011;2837;50.990;7.124;2023-08-21T14:55:37;144.17;;;8.70;;
5630;SDS011;2837;50.990;7.124;2023-08-21T14:58:02;143.10;;;8.00;;
5630;SDS011;2837;50.990;7.124;2023-08-21T15:00:32;144.40;;;9.33;;
5630;SDS011;2837;50.990;7.124;2023-08-21T15:02:58;142.80;;;9.00;;
5630;SDS011;2837;50.990;7.124;2023-08-21T15:05:25;143.50;;;8.90;;
5630;SDS011;2837;50.990;7.124;2023-08-21T15:07:51;143.00;;;8.03;;
5630;SDS011;2837;50.990;7.124;2023-08-21T15:10:19;141.10;;;8.30;;
5630;SDS011;2837;50.990;7.124;2023-08-21T15:12:45;143.47;;;8.93;;
5630;SDS011;2837;50.990;7.124;2023-08-21T15:15:11;142.60;;;8.80;;
5630;SDS011;2837;50.990;7.124;2023-08-21T15:17:36;143.70;;;8.13;;
5630;SDS011;2837;50.990;7.124;2023-08-21T15:20:03;143.50;;;8.83;;
5630;SDS011;2837;50.990;7.124;2023-08-21T15:22:32;140.50;;;7.80;;
5630;SDS011;2837;50.990;7.124;2023-08-21T15:24:58;144.60;;;9.00;;
5630;SDS011;2837;50.990;7.124;2023-08-21T15:27:24;141.20;;;8.90;;
5630;SDS011;2837;50.990;7.124;2023-08-21T15:29:49;144.37;;;8.47;;
5630;SDS011;2837;50.990;7.124;2023-08-21T15:32:15;142.17;;;8.73;;
5630;SDS011;2837;50.990;7.124;2023-08-21T15:34:42;148.43;;;8.60;;
5630;SDS011;2837;50.990;7.124;2023-08-21T15:37:07;141.80;;;7.93;;
5630;SDS011;2837;50.990;7.124;2023-08-21T15:39:34;141.30;;;8.63;;
5630;SDS011;2837;50.990;7.124;2023-08-21T15:42:00;143.17;;;8.60;;
5630;SDS011;2837;50.990;7.124;2023-08-21T15:44:26;143.00;;;8.53;;
5630;SDS011;2837;50.990;7.124;2023-08-21T15:46:52;142.57;;;8.90;;
5630;SDS011;2837;50.990;7.124;2023-08-21T15:49:18;142.40;;;8.40;;
5630;SDS011;2837;50.990;7.124;2023-08-21T15:51:43;143.30;;;8.67;;
5630;SDS011;2837;50.990;7.124;2023-08-21T15:54:09;142.57;;;8.30;;
5630;SDS011;2837;50.990;7.124;2023-08-21T15:56:35;142.37;;;8.20;;
5630;SDS011;2837;50.990;7.124;2023-08-21T15:59:01;144.10;;;8.43;;
5630;SDS011;2837;50.990;7.124;2023-08-21T16:01:27;143.67;;;8.80;;
5630;SDS011;2837;50.990;7.124;2023-08-21T16:03:53;142.77;;;8.20;;
5630;SDS011;2837;50.990;7.124;2023-08-21T16:06:19;142.87;;;8.80;;
5630;SDS011;2837;50.990;7.124;2023-08-21T16:08:45;142.27;;;8.67;;
5630;SDS011;2837;50.990;7.124;2023-08-21T16:11:11;142.03;;;8.80;;
5630;SDS011;2837;50.990;7.124;2023-08-21T16:13:37;141.90;;;8.47;;
5630;SDS011;2837;50.990;7.124;2023-08-21T16:16:02;144.50;;;8.47;;
5630;SDS011;2837;50.990;7.124;2023-08-21T16:18:28;140.27;;;7.93;;
5630;SDS011;2837;50.990;7.124;2023-08-21T16:20:53;144.27;;;8.77;;
5630;SDS011;2837;50.990;7.124;2023-08-21T16:23:19;144.00;;;8.57;;
5630;SDS011;2837;50.990;7.124;2023-08-21T16:25:45;144.10;;;9.10;;
5630;SDS011;2837;50.990;7.124;2023-08-21T16:28:11;142.30;;;8.80;;
5630;SDS011;2837;50.990;7.124;2023-08-21T16:30:36;143.13;;;7.80;;
5630;SDS011;2837;50.990;7.124;2023-08-21T16:33:02;144.13;;;8.07;;
5630;SDS011;2837;50.990;7.124;2023-08-21T16:35:29;142.13;;;8.43;;
5630;SDS011;2837;50.990;7.124;2023-08-21T16:37:55;144.40;;;8.70;;
5630;SDS011;2837;50.990;7.124;2023-08-21T16:40:21;147.17;;;8.53;;
5630;SDS011;2837;50.990;7.124;2023-08-21T16:42:49;142.57;;;8.70;;
5630;SDS011;2837;50.990;7.124;2023-08-21T16:45:15;142.37;;;8.23;;
5630;SDS011;2837;50.990;7.124;2023-08-21T16:47:41;141.67;;;8.40;;
5630;SDS011;2837;50.990;7.124;2023-08-21T16:50:10;142.90;;;7.90;;
5630;SDS011;2837;50.990;7.124;2023-08-21T16:52:36;142.43;;;8.00;;
5630;SDS011;2837;50.990;7.124;2023-08-21T16:55:02;144.17;;;7.73;;
5630;SDS011;2837;50.990;7.124;2023-08-21T16:57:28;143.10;;;7.80;;
5630;SDS011;2837;50.990;7.124;2023-08-21T16:59:54;143.57;;;8.20;;
5630;SDS011;2837;50.990;7.124;2023-08-21T17:02:19;140.80;;;7.93;;
5630;SDS011;2837;50.990;7.124;2023-08-21T17:04:47;142.70;;;8.00;;
5630;SDS011;2837;50.990;7.124;2023-08-21T17:07:13;142.37;;;7.90;;
5630;SDS011;2837;50.990;7.124;2023-08-21T17:09:40;140.70;;;7.37;;
5630;SDS011;2837;50.990;7.124;2023-08-21T17:12:09;141.07;;;7.90;;
5630;SDS011;2837;50.990;7.124;2023-08-21T17:14:35;144.27;;;8.70;;
5630;SDS011;2837;50.990;7.124;2023-08-21T17:17:01;144.30;;;7.27;;
5630;SDS011;2837;50.990;7.124;2023-08-21T17:19:28;142.87;;;8.03;;
5630;SDS011;2837;50.990;7.124;2023-08-21T17:21:54;141.37;;;7.10;;
5630;SDS011;2837;50.990;7.124;2023-08-21T17:24:20;142.20;;;8.50;;
5630;SDS011;2837;50.990;7.124;2023-08-21T17:26:46;140.97;;;7.80;;
5630;SDS011;2837;50.990;7.124;2023-08-21T17:29:12;144.43;;;8.07;;
5630;SDS011;2837;50.990;7.124;2023-08-21T17:31:38;143.90;;;7.10;;
5630;SDS011;2837;50.990;7.124;2023-08-21T17:34:04;141.93;;;7.57;;
5630;SDS011;2837;50.990;7.124;2023-08-21T17:36:30;145.10;;;7.70;;
5630;SDS011;2837;50.990;7.124;2023-08-21T17:38:55;144.23;;;8.30;;
5630;SDS011;2837;50.990;7.124;2023-08-21T17:41:21;141.47;;;7.90;;
5630;SDS011;2837;50.990;7.124;2023-08-21T17:43:47;140.50;;;8.20;;
5630;SDS011;2837;50.990;7.124;2023-08-21T17:46:13;143.60;;;8.17;;
5630;SDS011;2837;50.990;7.124;2023-08-21T17:48:41;141.67;;;8.27;;
5630;SDS011;2837;50.990;7.124;2023-08-21T17:51:07;141.87;;;8.13;;
5630;SDS011;2837;50.990;7.124;2023-08-21T17:53:33;143.27;;;8.30;;
5630;SDS011;2837;50.990;7.124;2023-08-21T17:55:59;141.57;;;7.47;;
5630;SDS011;2837;50.990;7.124;2023-08-21T17:58:25;142.37;;;7.00;;
5630;SDS011;2837;50.990;7.124;2023-08-21T18:00:51;142.73;;;8.27;;
5630;SDS011;2837;50.990;7.124;2023-08-21T18:03:18;141.80;;;8.07;;
5630;SDS011;2837;50.990;7.124;2023-08-21T18:05:44;140.93;;;7.57;;
5630;SDS011;2837;50.990;7.124;2023-08-21T18:08:10;142.00;;;8.17;;
5630;SDS011;2837;50.990;7.124;2023-08-21T18:10:36;143.17;;;8.10;;
5630;SDS011;2837;50.990;7.124;2023-08-21T18:13:02;145.07;;;7.90;;
5630;SDS011;2837;50.990;7.124;2023-08-21T18:15:29;142.20;;;7.70;;
5630;SDS011;2837;50.990;7.124;2023-08-21T18:17:59;142.43;;;8.00;;
5630;SDS011;2837;50.990;7.124;2023-08-21T18:20:26;142.50;;;8.03;;
5630;SDS011;2837;50.990;7.124;2023-08-21T18:23:12;143.40;;;8.90;;
5630;SDS011;2837;50.990;7.124;2023-08-21T18:25:37;142.37;;;8.70;;
5630;SDS011;2837;50.990;7.124;2023-08-21T18:28:03;149.97;;;8.13;;
5630;SDS011;2837;50.990;7.124;2023-08-21T18:30:33;141.30;;;8.23;;
5630;SDS011;2837;50.990;7.124;2023-08-21T18:33:00;144.00;;;7.40;;
5630;SDS011;2837;50.990;7.124;2023-08-21T18:35:26;143.53;;;7.97;;
5630;SDS011;2837;50.990;7.124;2023-08-21T18:37:52;142.57;;;7.27;;
5630;SDS011;2837;50.990;7.124;2023-08-21T18:40:18;143.20;;;8.47;;
5630;SDS011;2837;50.990;7.124;2023-08-21T18:42:43;144.50;;;8.00;;
5630;SDS011;2837;50.990;7.124;2023-08-21T18:45:09;142.37;;;8.37;;
5630;SDS011;2837;50.990;7.124;2023-08-21T18:47:35;144.40;;;8.43;;
5630;SDS011;2837;50.990;7.124;2023-08-21T18:50:01;143.33;;;8.00;;
5630;SDS011;2837;50.990;7.124;2023-08-21T18:52:27;144.93;;;8.60;;
5630;SDS011;2837;50.990;7.124;2023-08-21T18:54:53;144.90;;;8.37;;
5630;SDS011;2837;50.990;7.124;2023-08-21T18:57:19;142.77;;;8.00;;
5630;SDS011;2837;50.990;7.124;2023-08-21T18:59:44;142.77;;;8.00;;
5630;SDS011;2837;50.990;7.124;2023-08-21T19:02:10;143.17;;;8.43;;
5630;SDS011;2837;50.990;7.124;2023-08-21T19:04:35;142.97;;;8.00;;
5630;SDS011;2837;50.990;7.124;2023-08-21T19:07:01;143.63;;;8.80;;
5630;SDS011;2837;50.990;7.124;2023-08-21T19:09:27;143.73;;;7.30;;
5630;SDS011;2837;50.990;7.124;2023-08-21T19:11:52;143.77;;;8.30;;
5630;SDS011;2837;50.990;7.124;2023-08-21T19:14:18;144.60;;;8.30;;
5630;SDS011;2837;50.990;7.124;2023-08-21T19:16:43;142.97;;;7.90;;
5630;SDS011;2837;50.990;7.124;2023-08-21T19:19:09;144.67;;;8.30;;
5630;SDS011;2837;50.990;7.124;2023-08-21T19:21:35;143.80;;;8.23;;
5630;SDS011;2837;50.990;7.124;2023-08-21T19:24:01;144.57;;;8.53;;
5630;SDS011;2837;50.990;7.124;2023-08-21T19:26:27;147.60;;;8.10;;
5630;SDS011;2837;50.990;7.124;2023-08-21T19:28:53;147.07;;;8.23;;
5630;SDS011;2837;50.990;7.124;2023-08-21T19:31:19;145.20;;;8.30;;
5630;SDS011;2837;50.990;7.124;2023-08-21T19:33:45;148.37;;;8.10;;
5630;SDS011;2837;50.990;7.124;2023-08-21T19:36:11;145.87;;;8.40;;
5630;SDS011;2837;50.990;7.124;2023-08-21T19:38:37;148.00;;;8.97;;
5630;SDS011;2837;50.990;7.124;2023-08-21T19:41:08;143.10;;;7.47;;
5630;SDS011;2837;50.990;7.124;2023-08-21T19:43:34;143.77;;;8.17;;